Аэропорт
Худжанд (UTDL)

 UTDL / LBD
ЗЦ Центральная Азия
Душанбе (UTDD)
Душанбе (UTDD)
 40.21540, 69.69470  / 1450 ft

 UTDL 300500Z 08009G14MPS 9999 NSC 11/M01 Q1029 R08/CLRD70 NOSIG RMK QFE732/0976
 TAF UTDL 300300Z 3004/3016 08008MPS 9999 NSC TEMPO 3004/3010 07013MPS
UTDL_aip_1705
показать схемы

2020 © VATRUS division (Privacy Policy)